Time;durP1;ratioP1;P1;durP2;ratioP2;P2;SDS_P1;SDS_P2;PMS_P1;PMS_P2;Temp;Humidity;BMP_temperature;BMP_pressure;BME280_temperature;BME280_humidity;BME280_pressure;Samples;Min_cycle;Max_cycle;Signal;HPM_P1;HPM_P2
2023/10/24 00:00:29;;;;;;;15.90;8.93;;;10.20;99.90;;;;;;5019704;28;20044;-63
2023/10/24 00:02:55;;;;;;;13.63;8.52;;;10.20;99.90;;;;;;5030878;28;20076;-63
2023/10/24 00:05:21;;;;;;;16.05;8.80;;;10.10;99.90;;;;;;5033846;28;20038;-63
2023/10/24 00:07:46;;;;;;;15.70;8.35;;;10.10;99.90;;;;;;5016354;28;20402;-63
2023/10/24 00:10:13;;;;;;;14.73;7.65;;;10.10;99.90;;;;;;5015599;28;20033;-63
2023/10/24 00:12:39;;;;;;;12.65;7.65;;;10.10;99.90;;;;;;5032937;28;20065;-63
2023/10/24 00:15:05;;;;;;;15.30;8.55;;;10.10;99.90;;;;;;5021849;28;20045;-63
2023/10/24 00:17:31;;;;;;;13.68;8.13;;;10.10;99.90;;;;;;5035568;28;20044;-63
2023/10/24 00:19:57;;;;;;;14.88;8.45;;;10.10;99.90;;;;;;5053309;28;20037;-63
2023/10/24 00:22:22;;;;;;;16.38;8.52;;;10.10;99.90;;;;;;5036387;28;20397;-63
2023/10/24 00:24:48;;;;;;;14.23;8.43;;;10.10;99.90;;;;;;5035777;28;20045;-63
2023/10/24 00:27:14;;;;;;;14.77;8.90;;;10.10;99.90;;;;;;5018244;28;20048;-63
2023/10/24 00:29:39;;;;;;;13.18;8.30;;;10.10;99.90;;;;;;5035412;28;20044;-63
2023/10/24 00:32:05;;;;;;;13.20;8.82;;;10.10;99.90;;;;;;5036139;28;20056;-63
2023/10/24 00:34:31;;;;;;;12.48;8.85;;;10.10;99.90;;;;;;5034746;28;20516;-63
2023/10/24 00:36:56;;;;;;;15.00;9.05;;;10.10;99.90;;;;;;5019391;28;20454;-63
2023/10/24 00:39:22;;;;;;;15.05;9.30;;;10.10;99.90;;;;;;5052754;28;20108;-63
2023/10/24 00:41:48;;;;;;;13.00;8.07;;;10.10;99.90;;;;;;5034268;28;20095;-63
2023/10/24 00:44:14;;;;;;;14.45;8.80;;;10.10;99.90;;;;;;5035985;28;20045;-63
2023/10/24 00:46:41;;;;;;;16.90;9.65;;;10.10;99.90;;;;;;5034505;28;20044;-63
2023/10/24 00:49:08;;;;;;;15.40;8.48;;;10.10;99.90;;;;;;5053309;28;20445;-63
2023/10/24 00:51:34;;;;;;;15.82;8.88;;;10.20;99.90;;;;;;5052376;28;20045;-63
2023/10/24 00:54:01;;;;;;;14.63;8.98;;;10.10;99.90;;;;;;5034851;28;20052;-63
2023/10/24 00:56:29;;;;;;;12.90;8.65;;;10.10;99.90;;;;;;5035524;28;20381;-63
2023/10/24 00:58:55;;;;;;;14.52;8.43;;;10.10;99.90;;;;;;5035367;28;20075;-63
2023/10/24 01:01:22;;;;;;;15.05;9.27;;;10.20;99.90;;;;;;5033701;28;20076;-63
2023/10/24 01:03:49;;;;;;;19.08;9.68;;;10.20;99.90;;;;;;5034518;28;20096;-63
2023/10/24 01:06:16;;;;;;;14.30;8.38;;;10.10;99.90;;;;;;5036764;28;20457;-63
2023/10/24 01:08:42;;;;;;;15.60;9.73;;;10.10;99.90;;;;;;5014054;28;20121;-64
2023/10/24 01:11:08;;;;;;;18.15;8.50;;;10.20;99.90;;;;;;5033083;28;20115;-64
2023/10/24 01:13:34;;;;;;;15.98;10.55;;;10.10;99.90;;;;;;5047088;28;20053;-64
2023/10/24 01:16:00;;;;;;;18.17;9.70;;;10.10;99.90;;;;;;5052367;28;20052;-64
2023/10/24 01:18:26;;;;;;;14.93;9.93;;;10.10;99.90;;;;;;5034745;28;20390;-65
2023/10/24 01:20:51;;;;;;;15.95;10.23;;;10.10;99.90;;;;;;5035058;28;20496;-65
2023/10/24 01:23:17;;;;;;;17.30;11.75;;;10.10;99.90;;;;;;5051918;28;20045;-65
2023/10/24 01:25:43;;;;;;;20.45;11.98;;;10.10;99.90;;;;;;5015682;28;20261;-65
2023/10/24 01:28:09;;;;;;;18.25;11.23;;;10.00;99.90;;;;;;5048458;28;20124;-65
2023/10/24 01:30:38;;;;;;;21.58;11.85;;;10.00;99.90;;;;;;5046901;28;20041;-65
2023/10/24 01:33:03;;;;;;;14.20;10.05;;;10.10;99.90;;;;;;5015324;28;20103;-64
2023/10/24 01:35:30;;;;;;;16.83;11.10;;;10.10;99.90;;;;;;5047806;28;20049;-64
2023/10/24 01:37:56;;;;;;;17.88;11.45;;;10.10;99.90;;;;;;5033569;28;20044;-64
2023/10/24 01:40:22;;;;;;;16.15;10.80;;;10.10;99.90;;;;;;5034749;28;20121;-65
2023/10/24 01:42:48;;;;;;;18.90;11.13;;;10.00;99.90;;;;;;5034546;28;20116;-64
2023/10/24 01:45:15;;;;;;;18.30;11.27;;;10.10;99.90;;;;;;5022236;28;20045;-65
2023/10/24 01:47:41;;;;;;;17.50;11.10;;;10.10;99.90;;;;;;5050683;28;20385;-65
2023/10/24 01:50:08;;;;;;;18.83;11.23;;;10.10;99.90;;;;;;5023069;28;20049;-64
2023/10/24 01:52:33;;;;;;;20.40;12.10;;;10.00;99.90;;;;;;5030128;28;20049;-64
2023/10/24 01:54:59;;;;;;;18.50;12.07;;;9.90;99.90;;;;;;5032523;28;20041;-64
2023/10/24 01:57:25;;;;;;;20.67;11.25;;;10.00;99.90;;;;;;5032818;28;20044;-64
2023/10/24 01:59:50;;;;;;;16.98;11.43;;;10.00;99.90;;;;;;5022110;28;20032;-64
2023/10/24 02:02:16;;;;;;;20.05;12.50;;;10.00;99.90;;;;;;5034690;28;20124;-64
2023/10/24 02:04:42;;;;;;;18.90;11.52;;;10.00;99.90;;;;;;5016978;28;20079;-64
2023/10/24 02:07:08;;;;;;;20.00;12.45;;;10.00;99.90;;;;;;5034326;28;20048;-64
2023/10/24 02:09:33;;;;;;;20.25;11.77;;;9.90;99.90;;;;;;5023574;28;20053;-64
2023/10/24 02:12:00;;;;;;;21.98;13.27;;;9.90;99.90;;;;;;5031359;28;20065;-64
2023/10/24 02:14:27;;;;;;;22.08;13.52;;;10.00;99.90;;;;;;5044384;28;20120;-65
2023/10/24 02:16:52;;;;;;;20.73;13.02;;;10.00;99.90;;;;;;5014272;28;20049;-65
2023/10/24 02:19:18;;;;;;;19.08;13.90;;;9.90;99.90;;;;;;5003356;28;20037;-65
2023/10/24 02:21:44;;;;;;;17.63;12.60;;;9.90;99.90;;;;;;5033310;28;20076;-65
2023/10/24 02:24:09;;;;;;;20.27;13.40;;;10.00;99.90;;;;;;5034134;28;20124;-65
2023/10/24 02:26:35;;;;;;;20.80;13.73;;;9.90;99.90;;;;;;5012779;28;20041;-66
2023/10/24 02:29:01;;;;;;;19.13;13.43;;;9.90;99.90;;;;;;5014345;28;20085;-66
2023/10/24 02:31:27;;;;;;;18.60;13.00;;;10.00;99.90;;;;;;5013926;28;20069;-65
2023/10/24 02:33:53;;;;;;;20.10;13.70;;;9.90;99.90;;;;;;4998850;28;20128;-65
2023/10/24 02:36:19;;;;;;;19.65;13.40;;;9.90;99.90;;;;;;5018444;28;20034;-65
2023/10/24 02:38:47;;;;;;;22.38;13.63;;;9.90;99.90;;;;;;5035233;28;20041;-65
2023/10/24 02:41:14;;;;;;;20.65;13.23;;;10.00;99.90;;;;;;5001492;28;20512;-65
2023/10/24 02:43:40;;;;;;;22.58;13.95;;;10.00;99.90;;;;;;5017830;28;20422;-65
2023/10/24 02:46:07;;;;;;;20.77;13.77;;;9.90;99.90;;;;;;5018140;28;20091;-65
2023/10/24 02:48:33;;;;;;;19.75;12.98;;;9.90;99.90;;;;;;5017672;28;20038;-65
2023/10/24 02:50:59;;;;;;;19.88;13.38;;;9.90;99.90;;;;;;5018054;28;20133;-65
2023/10/24 02:53:24;;;;;;;20.88;11.82;;;10.00;99.90;;;;;;5033442;28;20068;-65
2023/10/24 02:55:51;;;;;;;20.90;13.02;;;10.10;99.90;;;;;;5021427;28;20051;-65
2023/10/24 02:58:17;;;;;;;19.00;11.98;;;10.00;99.90;;;;;;5036153;28;20097;-65
2023/10/24 03:00:44;;;;;;;21.27;14.63;;;9.90;99.90;;;;;;5036138;28;20049;-65
2023/10/24 03:03:10;;;;;;;17.40;11.38;;;10.10;99.90;;;;;;5037956;28;20044;-65
2023/10/24 03:05:36;;;;;;;18.35;12.85;;;10.00;99.90;;;;;;5054871;28;20028;-65
2023/10/24 03:08:03;;;;;;;17.38;11.52;;;10.00;99.90;;;;;;5037054;28;20490;-65
2023/10/24 03:10:29;;;;;;;16.50;11.20;;;10.00;99.90;;;;;;5021001;28;20064;-65
2023/10/24 03:12:55;;;;;;;17.27;11.48;;;10.10;99.90;;;;;;5037412;28;20053;-65
2023/10/24 03:15:21;;;;;;;17.42;11.55;;;10.10;99.90;;;;;;5036945;28;20100;-65
2023/10/24 03:17:47;;;;;;;16.13;10.98;;;10.10;99.90;;;;;;5020401;28;20492;-65
2023/10/24 03:20:13;;;;;;;18.25;11.80;;;10.10;99.90;;;;;;5055109;28;20041;-65
2023/10/24 03:22:39;;;;;;;17.00;11.55;;;10.10;99.90;;;;;;5036122;28;20033;-65
2023/10/24 03:25:05;;;;;;;17.08;12.10;;;10.20;99.90;;;;;;5037555;28;20142;-65
2023/10/24 03:27:31;;;;;;;17.30;11.75;;;10.20;99.90;;;;;;5036454;28;20048;-65
2023/10/24 03:29:57;;;;;;;16.33;11.55;;;10.10;99.90;;;;;;5036771;28;20378;-65
2023/10/24 03:32:22;;;;;;;13.93;9.45;;;10.10;99.90;;;;;;5037453;28;20478;-65
2023/10/24 03:34:48;;;;;;;15.35;10.43;;;10.10;99.90;;;;;;5036412;28;20045;-66
2023/10/24 03:37:15;;;;;;;16.63;11.20;;;10.10;99.90;;;;;;5020170;28;20041;-66
2023/10/24 03:39:41;;;;;;;15.25;11.07;;;10.30;99.90;;;;;;5034476;28;20096;-66
2023/10/24 03:42:11;;;;;;;14.25;10.15;;;10.30;99.90;;;;;;5034991;28;20029;-66
2023/10/24 03:44:37;;;;;;;17.67;10.65;;;10.30;99.90;;;;;;5033631;28;20045;-65
2023/10/24 03:47:02;;;;;;;15.15;10.95;;;10.30;99.90;;;;;;5016997;28;20045;-65
2023/10/24 03:49:28;;;;;;;17.42;12.32;;;10.20;99.90;;;;;;5036464;28;20050;-65
2023/10/24 03:51:54;;;;;;;17.75;12.73;;;10.30;99.90;;;;;;5054677;28;20033;-65
2023/10/24 03:54:19;;;;;;;20.73;15.13;;;10.20;99.90;;;;;;5054772;28;20043;-65
2023/10/24 03:56:45;;;;;;;20.83;16.35;;;10.30;99.90;;;;;;5052962;28;20033;-65
2023/10/24 03:59:11;;;;;;;17.45;13.00;;;10.30;99.90;;;;;;5036839;28;20082;-65
2023/10/24 04:01:36;;;;;;;16.20;10.85;;;10.30;99.90;;;;;;5035794;28;20048;-66
2023/10/24 04:04:02;;;;;;;14.32;11.60;;;10.40;99.90;;;;;;5018267;28;20041;-66
2023/10/24 04:06:28;;;;;;;16.23;12.98;;;10.30;99.90;;;;;;5036121;28;20367;-66
2023/10/24 04:08:54;;;;;;;16.83;12.57;;;10.40;99.90;;;;;;5036513;28;20103;-66
2023/10/24 04:11:19;;;;;;;15.77;10.50;;;10.40;99.90;;;;;;5053706;28;20052;-65
2023/10/24 04:13:46;;;;;;;14.90;9.75;;;10.50;99.90;;;;;;5036359;28;20045;-65
2023/10/24 04:16:12;;;;;;;17.02;9.95;;;10.50;99.90;;;;;;5036627;28;20110;-65
2023/10/24 04:18:39;;;;;;;16.35;11.20;;;10.50;99.90;;;;;;5053202;28;20059;-65
2023/10/24 04:21:05;;;;;;;15.57;10.05;;;10.40;99.90;;;;;;5054207;28;20037;-65
2023/10/24 04:23:31;;;;;;;14.50;10.15;;;10.50;99.90;;;;;;5053962;28;20425;-65
2023/10/24 04:25:56;;;;;;;14.98;10.15;;;10.60;99.90;;;;;;5018849;28;20045;-65
2023/10/24 04:28:22;;;;;;;15.88;9.82;;;10.60;99.90;;;;;;5036130;28;20041;-65
2023/10/24 04:30:50;;;;;;;16.48;10.32;;;10.60;99.90;;;;;;5052982;28;20568;-64
2023/10/24 04:33:16;;;;;;;17.13;10.82;;;10.60;99.90;;;;;;5018768;28;20044;-65
2023/10/24 04:35:50;;;;;;;16.60;10.35;;;10.70;99.90;;;;;;5035730;28;20045;-65
2023/10/24 04:38:16;;;;;;;16.38;11.30;;;10.50;99.90;;;;;;5054207;28;20060;-64
2023/10/24 04:40:42;;;;;;;16.42;10.70;;;10.60;99.90;;;;;;5023323;28;20037;-65
2023/10/24 04:43:08;;;;;;;22.05;12.70;;;10.50;99.90;;;;;;5033759;28;20545;-65
2023/10/24 04:45:35;;;;;;;14.95;9.77;;;10.50;99.90;;;;;;5015984;28;20454;-65
2023/10/24 04:48:02;;;;;;;16.92;12.40;;;10.60;99.90;;;;;;5048342;28;20049;-65
2023/10/24 04:50:27;;;;;;;18.63;11.48;;;10.60;99.90;;;;;;5032076;28;20077;-64
2023/10/24 04:52:54;;;;;;;20.13;13.30;;;10.60;99.90;;;;;;5031742;28;20431;-65
2023/10/24 04:55:20;;;;;;;15.48;11.20;;;10.80;99.90;;;;;;5016009;28;20045;-65
2023/10/24 04:57:46;;;;;;;16.25;11.50;;;10.70;99.90;;;;;;5048044;28;20037;-65
2023/10/24 05:00:13;;;;;;;17.08;12.30;;;10.60;99.90;;;;;;5034770;28;20041;-65
2023/10/24 05:02:39;;;;;;;19.38;13.98;;;10.70;99.90;;;;;;5034954;28;20482;-65
2023/10/24 05:05:06;;;;;;;19.00;12.90;;;10.80;99.90;;;;;;5035697;28;20076;-65
2023/10/24 05:07:32;;;;;;;18.20;11.02;;;10.70;99.90;;;;;;5052018;28;20036;-65
2023/10/24 05:09:57;;;;;;;21.65;14.98;;;10.70;99.90;;;;;;5035671;28;20044;-65
2023/10/24 05:12:23;;;;;;;19.90;13.25;;;10.80;99.90;;;;;;5035228;28;20052;-65
2023/10/24 05:14:49;;;;;;;19.48;13.27;;;10.90;99.90;;;;;;5034210;28;20616;-65
2023/10/24 05:17:14;;;;;;;19.20;11.75;;;10.80;99.90;;;;;;5035244;28;20123;-65
2023/10/24 05:19:41;;;;;;;16.83;12.32;;;10.80;99.90;;;;;;5035058;28;20102;-65
2023/10/24 05:22:08;;;;;;;18.17;12.32;;;10.90;99.90;;;;;;5018220;28;20072;-65
2023/10/24 05:24:34;;;;;;;18.63;13.35;;;10.90;99.90;;;;;;5034141;28;20444;-65
2023/10/24 05:27:00;;;;;;;18.27;13.00;;;11.00;99.90;;;;;;5035066;28;20075;-65
2023/10/24 05:29:25;;;;;;;18.55;13.75;;;10.80;99.90;;;;;;5019546;28;20087;-65
2023/10/24 05:31:51;;;;;;;20.27;14.15;;;10.80;99.90;;;;;;5032973;28;20505;-65
2023/10/24 05:34:17;;;;;;;18.85;13.50;;;11.00;99.90;;;;;;5022158;28;20509;-65
2023/10/24 05:36:43;;;;;;;16.13;12.27;;;10.80;99.90;;;;;;5032610;28;20039;-65
2023/10/24 05:39:08;;;;;;;19.10;14.35;;;11.00;99.90;;;;;;5034242;28;20036;-65
2023/10/24 05:41:34;;;;;;;16.40;12.88;;;11.10;99.90;;;;;;5032293;28;20042;-65
2023/10/24 05:43:59;;;;;;;18.73;13.18;;;11.10;99.90;;;;;;5047174;28;20608;-65
2023/10/24 05:46:25;;;;;;;20.60;12.95;;;10.90;99.90;;;;;;5032593;28;20378;-66
2023/10/24 05:48:51;;;;;;;19.10;13.07;;;11.00;99.90;;;;;;5047840;28;20033;-65
2023/10/24 05:51:29;;;;;;;17.83;13.00;;;11.10;99.90;;;;;;5030793;28;20080;-65
2023/10/24 05:53:54;;;;;;;17.05;13.90;;;11.10;99.90;;;;;;5027210;28;20053;-65
2023/10/24 05:56:20;;;;;;;17.10;13.50;;;11.20;99.90;;;;;;5033908;28;20510;-65
2023/10/24 05:58:46;;;;;;;21.35;15.32;;;11.00;99.90;;;;;;5034279;28;20071;-65
2023/10/24 06:01:12;;;;;;;19.73;14.63;;;11.20;99.90;;;;;;5033815;28;20034;-65
2023/10/24 06:03:37;;;;;;;22.52;16.35;;;11.10;99.90;;;;;;4997123;28;20037;-65
2023/10/24 06:06:03;;;;;;;17.35;14.52;;;11.30;99.90;;;;;;5032490;28;20045;-65
2023/10/24 06:08:29;;;;;;;17.52;14.13;;;11.00;99.90;;;;;;5034747;28;20028;-65
2023/10/24 06:10:59;;;;;;;16.40;14.20;;;11.00;99.90;;;;;;5033449;28;20408;-65
2023/10/24 06:13:25;;;;;;;17.48;14.23;;;11.30;99.90;;;;;;5034201;28;20127;-65
2023/10/24 06:15:51;;;;;;;20.88;14.93;;;11.00;99.90;;;;;;5034221;28;20045;-65
2023/10/24 06:18:17;;;;;;;22.13;16.20;;;11.30;99.90;;;;;;5038036;28;20038;-65
2023/10/24 06:20:43;;;;;;;21.58;15.43;;;11.00;99.90;;;;;;5031687;28;20049;-65
2023/10/24 06:23:10;;;;;;;22.20;16.63;;;11.30;99.90;;;;;;5014355;28;20045;-65
2023/10/24 06:25:37;;;;;;;16.90;13.68;;;11.10;99.90;;;;;;5013219;28;20095;-65
2023/10/24 06:28:03;;;;;;;20.08;14.93;;;11.10;99.90;;;;;;5014360;28;20116;-65
2023/10/24 06:30:30;;;;;;;19.65;15.77;;;11.20;99.90;;;;;;5014300;28;20586;-65
2023/10/24 06:32:56;;;;;;;23.30;18.17;;;11.20;99.90;;;;;;5013697;28;20056;-65
2023/10/24 06:35:21;;;;;;;23.15;17.85;;;11.30;99.90;;;;;;5014524;28;20136;-65
2023/10/24 06:37:47;;;;;;;22.30;17.42;;;11.10;99.90;;;;;;5014028;28;20045;-65
2023/10/24 06:40:13;;;;;;;21.23;15.15;;;11.30;99.90;;;;;;5031412;28;20037;-65
2023/10/24 06:42:39;;;;;;;23.38;16.17;;;11.10;99.90;;;;;;5013739;28;20043;-65
2023/10/24 06:45:06;;;;;;;19.42;15.55;;;11.30;99.90;;;;;;5031003;28;20457;-65
2023/10/24 06:47:32;;;;;;;19.30;15.15;;;11.30;99.90;;;;;;5019331;28;20041;-65
2023/10/24 06:49:57;;;;;;;22.80;16.83;;;11.10;99.90;;;;;;5033989;28;20124;-65
2023/10/24 06:52:23;;;;;;;19.88;15.93;;;11.10;99.90;;;;;;5024026;28;20049;-65
2023/10/24 06:54:49;;;;;;;18.33;13.90;;;11.30;99.90;;;;;;4997476;28;20103;-65
2023/10/24 06:57:15;;;;;;;19.30;14.70;;;11.20;99.90;;;;;;5047050;28;20041;-65
2023/10/24 06:59:40;;;;;;;20.90;15.50;;;11.40;99.90;;;;;;5030502;28;20807;-65
2023/10/24 07:02:07;;;;;;;18.48;14.10;;;11.40;99.90;;;;;;5047194;28;20121;-65
2023/10/24 07:04:32;;;;;;;17.67;13.10;;;11.40;99.90;;;;;;5031246;28;20049;-65
2023/10/24 07:06:58;;;;;;;17.73;12.98;;;11.20;99.90;;;;;;5046449;28;20041;-65
2023/10/24 07:09:24;;;;;;;18.52;12.77;;;11.20;99.90;;;;;;5033519;28;20052;-65
2023/10/24 07:11:50;;;;;;;17.63;12.75;;;11.40;99.90;;;;;;5028269;28;20060;-65
2023/10/24 07:14:15;;;;;;;20.27;13.02;;;11.40;99.90;;;;;;5023304;28;20041;-65
2023/10/24 07:16:41;;;;;;;16.60;11.18;;;11.30;99.90;;;;;;5013448;28;20099;-65
2023/10/24 07:19:07;;;;;;;16.25;9.88;;;11.30;99.90;;;;;;5027409;28;20033;-65
2023/10/24 07:21:32;;;;;;;14.05;10.07;;;11.10;99.90;;;;;;5014120;28;20099;-65
2023/10/24 07:23:59;;;;;;;13.98;10.52;;;11.30;99.90;;;;;;5015218;28;20073;-65
2023/10/24 07:26:24;;;;;;;13.10;8.52;;;11.30;99.90;;;;;;5032899;28;20702;-65
2023/10/24 07:28:50;;;;;;;11.85;8.60;;;11.40;99.90;;;;;;5014707;28;20045;-65
2023/10/24 07:31:16;;;;;;;13.45;7.53;;;11.20;99.90;;;;;;5031066;28;20037;-65
2023/10/24 07:33:42;;;;;;;12.73;8.63;;;11.10;99.90;;;;;;5034183;28;20045;-65
2023/10/24 07:36:08;;;;;;;12.23;8.07;;;11.10;99.90;;;;;;5033985;28;20100;-65
2023/10/24 07:38:35;;;;;;;14.32;9.07;;;11.20;99.90;;;;;;5017453;28;20041;-65
2023/10/24 07:41:01;;;;;;;11.63;7.80;;;11.30;99.90;;;;;;5034731;28;20033;-65
2023/10/24 07:43:27;;;;;;;13.55;8.27;;;11.00;99.90;;;;;;5033237;28;20124;-65
2023/10/24 07:45:53;;;;;;;13.20;8.65;;;11.20;99.90;;;;;;5052469;28;20119;-65
2023/10/24 07:48:20;;;;;;;12.38;8.15;;;11.20;99.90;;;;;;5018880;28;20042;-65
2023/10/24 07:50:53;;;;;;;14.93;9.52;;;11.20;99.90;;;;;;5031390;28;20060;-65
2023/10/24 07:53:20;;;;;;;16.92;10.02;;;11.10;99.90;;;;;;5048173;28;20037;-65
2023/10/24 07:55:46;;;;;;;17.17;9.18;;;11.20;99.90;;;;;;5048480;28;20548;-65
2023/10/24 07:58:12;;;;;;;15.48;9.85;;;11.00;99.90;;;;;;5034332;28;20045;-65
2023/10/24 08:00:38;;;;;;;13.93;9.45;;;11.20;99.90;;;;;;5041570;28;20390;-65
2023/10/24 08:03:04;;;;;;;17.02;10.05;;;11.10;99.90;;;;;;5013883;28;20050;-65
2023/10/24 08:05:29;;;;;;;23.23;10.50;;;11.20;99.90;;;;;;5006066;28;20132;-65
2023/10/24 08:07:55;;;;;;;15.75;9.55;;;11.10;99.90;;;;;;5030992;28;20500;-65
2023/10/24 08:10:22;;;;;;;17.83;10.82;;;11.10;99.90;;;;;;5032394;28;20567;-65
2023/10/24 08:50:45;;;;;;;20.52;13.02;;;11.30;99.90;;;;;;5041665;28;20496;-65
2023/10/24 08:53:13;;;;;;;22.80;14.63;;;11.30;99.90;;;;;;5009186;28;20044;-66
2023/10/24 08:55:46;;;;;;;25.08;15.02;;;11.00;99.90;;;;;;5018756;28;20053;-66
2023/10/24 08:58:15;;;;;;;26.15;14.85;;;11.10;99.90;;;;;;5024125;28;20053;-66
2023/10/24 09:00:41;;;;;;;27.90;16.70;;;11.10;99.90;;;;;;5028431;28;20041;-66
2023/10/24 09:03:06;;;;;;;26.00;15.63;;;11.00;99.90;;;;;;5039626;28;20030;-65
2023/10/24 09:05:32;;;;;;;26.27;16.23;;;11.10;99.90;;;;;;5019928;28;20055;-66
2023/10/24 09:07:59;;;;;;;22.75;15.27;;;11.00;99.90;;;;;;5029913;28;20048;-66
2023/10/24 09:10:25;;;;;;;22.20;14.02;;;11.00;99.90;;;;;;5049112;28;20041;-66
2023/10/24 09:12:56;;;;;;;25.85;16.33;;;11.30;99.90;;;;;;5031030;28;20053;-65
2023/10/24 09:15:22;;;;;;;21.65;14.75;;;11.30;99.90;;;;;;5022525;28;20052;-65
2023/10/24 09:17:47;;;;;;;22.80;15.52;;;11.10;99.90;;;;;;5015224;28;20042;-66
2023/10/24 09:20:16;;;;;;;22.55;15.15;;;11.40;99.90;;;;;;5030598;28;20505;-65
2023/10/24 09:22:42;;;;;;;23.88;15.77;;;11.30;99.90;;;;;;5028154;28;20033;-65
2023/10/24 09:25:08;;;;;;;25.67;16.58;;;11.40;99.90;;;;;;5018240;28;20474;-65
2023/10/24 09:27:34;;;;;;;27.08;17.25;;;11.20;99.90;;;;;;5029079;28;20091;-65
2023/10/24 09:30:12;;;;;;;24.45;17.05;;;11.30;99.90;;;;;;5046313;28;20079;-65
2023/10/24 09:32:41;;;;;;;32.65;20.25;;;11.20;99.90;;;;;;5030587;28;20489;-65
2023/10/24 09:35:08;;;;;;;24.80;17.33;;;11.30;99.90;;;;;;5014155;28;20048;-65
2023/10/24 09:37:37;;;;;;;22.10;16.67;;;11.40;99.90;;;;;;5030744;28;20044;-65
2023/10/24 09:40:03;;;;;;;26.23;16.92;;;11.30;99.90;;;;;;5049344;28;20115;-65
2023/10/24 09:42:30;;;;;;;24.63;15.98;;;11.20;99.90;;;;;;5029515;28;20051;-65
2023/10/24 09:45:02;;;;;;;24.35;16.83;;;11.40;99.90;;;;;;5025137;28;20077;-65
2023/10/24 09:47:29;;;;;;;27.05;16.05;;;11.50;99.90;;;;;;5021738;28;20067;-65
2023/10/24 09:49:56;;;;;;;22.63;16.65;;;11.40;99.90;;;;;;5014780;28;21365;-65
2023/10/24 09:52:24;;;;;;;22.95;16.48;;;11.30;99.90;;;;;;5035673;28;20450;-65
2023/10/24 09:54:53;;;;;;;24.63;16.40;;;11.50;99.90;;;;;;5031256;28;20053;-65
2023/10/24 09:57:20;;;;;;;24.40;15.63;;;11.30;99.90;;;;;;5027515;28;20121;-65
2023/10/24 10:00:00;;;;;;;24.65;16.58;;;11.20;99.90;;;;;;5031139;28;20044;-65
2023/10/24 10:02:26;;;;;;;26.00;16.92;;;11.30;99.90;;;;;;5030905;28;20124;-65
2023/10/24 10:04:52;;;;;;;25.48;16.77;;;11.40;99.90;;;;;;5013523;28;20049;-66
2023/10/24 10:07:20;;;;;;;24.05;16.08;;;11.30;99.90;;;;;;5000837;28;20071;-65
2023/10/24 10:09:47;;;;;;;23.20;14.88;;;11.40;99.90;;;;;;5024045;28;20528;-66
2023/10/24 10:12:17;;;;;;;20.30;14.88;;;11.30;99.90;;;;;;5017439;28;20060;-65
2023/10/24 10:15:17;;;;;;;20.27;14.43;;;11.30;99.90;;;;;;5018401;28;20092;-65
2023/10/24 10:18:06;;;;;;;21.23;13.95;;;11.50;99.90;;;;;;5008386;28;20084;-66
2023/10/24 10:21:06;;;;;;;21.73;14.57;;;11.30;99.90;;;;;;4994323;28;20048;-64
2023/10/24 10:23:41;;;;;;;24.38;16.00;;;11.30;99.90;;;;;;5004510;28;20482;-63
2023/10/24 10:26:19;;;;;;;;;;;11.30;99.90;;;;;;5029790;28;20136;-61
2023/10/24 10:29:01;;;;;;;21.67;15.32;;;11.40;99.90;;;;;;4988334;28;19921;-61
2023/10/24 10:31:59;;;;;;;20.92;15.32;;;11.20;99.90;;;;;;4981742;28;20054;-62
2023/10/24 10:34:36;;;;;;;24.52;15.23;;;11.20;99.90;;;;;;4978044;28;20057;-61
2023/10/24 10:37:02;;;;;;;20.45;14.18;;;11.50;99.90;;;;;;5027776;28;20045;-62
2023/10/24 10:39:29;;;;;;;20.13;14.13;;;11.20;99.90;;;;;;5027296;28;20056;-62
2023/10/24 10:41:55;;;;;;;20.48;14.07;;;11.50;99.90;;;;;;5029680;28;20052;-62
2023/10/24 10:44:40;;;;;;;22.33;13.85;;;11.20;99.90;;;;;;5010690;28;20037;-62
2023/10/24 10:47:11;;;;;;;21.27;15.65;;;11.30;99.90;;;;;;5009542;28;20045;-63
2023/10/24 10:49:44;;;;;;;22.38;13.70;;;11.20;99.90;;;;;;5008899;28;20121;-63
2023/10/24 10:52:48;;;;;;;22.00;13.85;;;11.20;99.90;;;;;;5030116;28;20080;-64
2023/10/24 10:55:27;;;;;;;21.77;12.88;;;11.40;99.90;;;;;;5010492;28;20137;-67
2023/10/24 10:58:19;;;;;;;22.70;14.45;;;11.30;99.90;;;;;;5008614;28;20120;-67
2023/10/24 11:01:04;;;;;;;20.55;13.98;;;11.30;99.90;;;;;;5015919;28;20099;-67
2023/10/24 11:03:41;;;;;;;19.00;12.63;;;11.30;99.90;;;;;;5017163;28;20083;-66
2023/10/24 11:06:15;;;;;;;19.67;13.85;;;11.50;99.90;;;;;;5016799;28;20044;-66
2023/10/24 11:09:05;;;;;;;20.83;13.53;;;11.40;99.90;;;;;;5014518;28;20034;-67
2023/10/24 11:11:31;;;;;;;21.38;14.65;;;11.40;99.90;;;;;;5015078;28;20100;-67
2023/10/24 11:14:16;;;;;;;21.80;14.63;;;11.40;99.90;;;;;;5016157;28;20466;-66
2023/10/24 11:16:43;;;;;;;20.08;14.88;;;11.50;99.90;;;;;;5010955;28;20478;-66
2023/10/24 11:19:20;;;;;;;23.08;14.57;;;11.40;99.90;;;;;;5033537;28;20041;-66
2023/10/24 11:21:52;;;;;;;21.13;13.98;;;11.50;99.90;;;;;;5013818;28;20040;-67
2023/10/24 11:24:20;;;;;;;18.90;13.77;;;11.70;99.90;;;;;;5029906;28;20128;-66
2023/10/24 11:26:55;;;;;;;18.83;13.52;;;11.70;99.90;;;;;;5029512;28;20127;-66
2023/10/24 11:29:21;;;;;;;19.75;13.90;;;11.50;99.90;;;;;;5022858;28;20072;-67
2023/10/24 11:31:48;;;;;;;22.13;14.20;;;11.70;99.90;;;;;;5030478;28;20072;-67
2023/10/24 11:34:15;;;;;;;21.73;15.05;;;11.70;99.90;;;;;;5035687;28;20048;-67
2023/10/24 11:36:45;;;;;;;20.50;14.77;;;11.70;99.90;;;;;;5032554;28;20073;-67
2023/10/24 11:39:14;;;;;;;20.42;15.00;;;11.60;99.90;;;;;;5050161;28;20399;-67
2023/10/24 11:41:44;;;;;;;22.35;15.38;;;11.50;99.90;;;;;;5027441;28;20037;-67
2023/10/24 11:44:14;;;;;;;20.02;13.50;;;11.80;99.90;;;;;;5017991;28;20045;-67
2023/10/24 11:46:41;;;;;;;19.17;12.68;;;11.60;99.90;;;;;;5024172;28;20422;-67
2023/10/24 11:49:07;;;;;;;20.83;15.20;;;11.60;99.90;;;;;;5027937;28;20091;-67
2023/10/24 11:51:33;;;;;;;20.70;14.27;;;11.80;99.90;;;;;;5027393;28;20048;-67
2023/10/24 11:54:07;;;;;;;23.80;14.55;;;11.80;99.90;;;;;;5031938;28;20513;-67
2023/10/24 11:56:33;;;;;;;19.53;14.70;;;11.60;99.90;;;;;;5030108;28;20048;-67
2023/10/24 11:59:01;;;;;;;18.17;14.02;;;11.60;99.90;;;;;;5016478;28;20030;-67
2023/10/24 12:01:31;;;;;;;18.58;14.35;;;11.70;99.90;;;;;;5025756;28;20397;-68
2023/10/24 12:03:57;;;;;;;20.98;15.02;;;11.60;99.90;;;;;;5035414;28;20045;-67
2023/10/24 12:06:29;;;;;;;20.48;14.75;;;11.70;99.90;;;;;;5034704;28;20041;-67
2023/10/24 12:08:55;;;;;;;20.05;13.63;;;11.70;99.90;;;;;;5035499;28;20041;-67
2023/10/24 12:11:24;;;;;;;19.77;13.60;;;11.70;99.90;;;;;;5035980;28;20048;-67
2023/10/24 12:13:50;;;;;;;18.88;13.55;;;11.80;99.90;;;;;;5036006;28;20049;-67
2023/10/24 12:16:16;;;;;;;20.55;13.35;;;11.70;99.90;;;;;;5034459;28;20040;-68
2023/10/24 12:18:42;;;;;;;16.92;13.02;;;11.60;99.90;;;;;;5053133;28;20396;-67
2023/10/24 12:21:10;;;;;;;20.13;13.88;;;11.80;99.90;;;;;;5035868;28;20036;-67
2023/10/24 12:23:36;;;;;;;18.38;13.23;;;11.70;99.90;;;;;;5034626;28;20441;-67
2023/10/24 12:26:04;;;;;;;18.45;12.65;;;11.70;99.90;;;;;;5032300;28;20049;-67
2023/10/24 12:28:30;;;;;;;18.38;13.15;;;11.70;99.90;;;;;;5008978;28;20037;-66
2023/10/24 12:30:55;;;;;;;17.73;13.25;;;11.70;99.90;;;;;;5005235;28;20759;-67
2023/10/24 12:33:21;;;;;;;18.23;13.48;;;11.90;99.90;;;;;;5026725;28;20053;-67
2023/10/24 12:35:47;;;;;;;20.75;14.35;;;11.60;99.90;;;;;;5050331;28;20127;-66
2023/10/24 12:38:13;;;;;;;21.77;14.25;;;11.70;99.90;;;;;;5017845;28;20040;-67
2023/10/24 12:40:39;;;;;;;17.88;13.50;;;11.70;99.90;;;;;;5034404;28;20387;-67
2023/10/24 12:43:05;;;;;;;17.80;12.82;;;11.70;99.90;;;;;;5027016;28;20029;-67
2023/10/24 12:45:30;;;;;;;17.98;13.10;;;11.90;99.90;;;;;;5023502;28;20099;-67
2023/10/24 12:47:59;;;;;;;17.70;12.65;;;11.60;99.90;;;;;;5022734;28;20433;-66
2023/10/24 12:50:25;;;;;;;16.00;11.95;;;11.70;99.90;;;;;;5031290;28;20055;-67
2023/10/24 12:52:50;;;;;;;18.30;14.57;;;11.80;99.90;;;;;;5024659;28;20127;-67
2023/10/24 12:55:16;;;;;;;17.00;12.23;;;11.70;99.90;;;;;;5034117;28;20490;-67
2023/10/24 12:57:42;;;;;;;14.63;11.60;;;11.80;99.90;;;;;;5020936;28;20037;-67
2023/10/24 13:00:08;;;;;;;15.40;11.57;;;11.70;99.90;;;;;;5016872;28;20046;-67
2023/10/24 13:02:34;;;;;;;17.58;11.70;;;11.60;99.90;;;;;;5020698;28;20079;-67
2023/10/24 13:05:00;;;;;;;15.07;10.55;;;11.80;99.90;;;;;;5014716;28;20080;-67
2023/10/24 13:07:25;;;;;;;14.65;10.88;;;11.60;99.90;;;;;;5030309;28;20033;-67
2023/10/24 13:09:51;;;;;;;13.75;9.77;;;11.60;99.90;;;;;;5019462;28;20053;-67